sensor_id;sensor_type;location;lat;lon;timestamp;temperature;humidity
52543;DHT22;38449;52.696;6.186;2022-08-02T00:01:41;15.20;99.90
52543;DHT22;38449;52.696;6.186;2022-08-02T00:04:07;15.20;99.90
52543;DHT22;38449;52.696;6.186;2022-08-02T00:06:33;15.10;99.90
52543;DHT22;38449;52.696;6.186;2022-08-02T00:08:59;15.10;99.90
52543;DHT22;38449;52.696;6.186;2022-08-02T00:11:25;15.10;99.90
52543;DHT22;38449;52.696;6.186;2022-08-02T00:13:50;15.10;99.90
52543;DHT22;38449;52.696;6.186;2022-08-02T00:16:16;15.00;99.90
52543;DHT22;38449;52.696;6.186;2022-08-02T00:18:43;15.00;99.90
52543;DHT22;38449;52.696;6.186;2022-08-02T00:21:08;14.90;99.90
52543;DHT22;38449;52.696;6.186;2022-08-02T00:23:34;14.90;99.90
52543;DHT22;38449;52.696;6.186;2022-08-02T00:26:00;14.90;99.90
52543;DHT22;38449;52.696;6.186;2022-08-02T00:28:25;14.80;99.90
52543;DHT22;38449;52.696;6.186;2022-08-02T00:30:51;14.80;99.90
52543;DHT22;38449;52.696;6.186;2022-08-02T00:33:17;14.80;99.90
52543;DHT22;38449;52.696;6.186;2022-08-02T00:35:43;14.80;99.90
52543;DHT22;38449;52.696;6.186;2022-08-02T00:38:11;14.70;99.90
52543;DHT22;38449;52.696;6.186;2022-08-02T00:40:37;14.60;99.90
52543;DHT22;38449;52.696;6.186;2022-08-02T00:43:08;14.70;99.90
52543;DHT22;38449;52.696;6.186;2022-08-02T00:45:37;14.60;99.90
52543;DHT22;38449;52.696;6.186;2022-08-02T00:48:04;14.60;99.90
52543;DHT22;38449;52.696;6.186;2022-08-02T00:50:30;14.50;99.90
52543;DHT22;38449;52.696;6.186;2022-08-02T00:52:56;14.50;99.90
52543;DHT22;38449;52.696;6.186;2022-08-02T00:55:22;14.50;99.90
52543;DHT22;38449;52.696;6.186;2022-08-02T00:57:48;14.40;99.90
52543;DHT22;38449;52.696;6.186;2022-08-02T01:00:14;14.30;99.90
52543;DHT22;38449;52.696;6.186;2022-08-02T01:02:40;14.30;99.90
52543;DHT22;38449;52.696;6.186;2022-08-02T01:05:06;14.40;99.90
52543;DHT22;38449;52.696;6.186;2022-08-02T01:07:32;14.30;99.90
52543;DHT22;38449;52.696;6.186;2022-08-02T01:09:58;14.20;99.90
52543;DHT22;38449;52.696;6.186;2022-08-02T01:12:25;14.20;99.90
52543;DHT22;38449;52.696;6.186;2022-08-02T01:14:52;14.20;99.90
52543;DHT22;38449;52.696;6.186;2022-08-02T01:17:29;14.10;99.90
52543;DHT22;38449;52.696;6.186;2022-08-02T01:30:28;14.00;99.90
52543;DHT22;38449;52.696;6.186;2022-08-02T01:32:57;14.00;99.90
52543;DHT22;38449;52.696;6.186;2022-08-02T01:35:30;14.00;99.90
52543;DHT22;38449;52.696;6.186;2022-08-02T01:38:08;14.00;99.90
52543;DHT22;38449;52.696;6.186;2022-08-02T01:40:36;14.00;99.90
52543;DHT22;38449;52.696;6.186;2022-08-02T01:43:05;14.00;99.90
52543;DHT22;38449;52.696;6.186;2022-08-02T01:45:37;13.90;99.90
52543;DHT22;38449;52.696;6.186;2022-08-02T01:48:04;13.90;99.90
52543;DHT22;38449;52.696;6.186;2022-08-02T01:50:32;13.90;99.90
52543;DHT22;38449;52.696;6.186;2022-08-02T01:53:04;13.90;99.90
52543;DHT22;38449;52.696;6.186;2022-08-02T01:55:37;13.90;99.90
52543;DHT22;38449;52.696;6.186;2022-08-02T01:58:06;13.80;99.90
52543;DHT22;38449;52.696;6.186;2022-08-02T02:00:35;13.70;99.90
52543;DHT22;38449;52.696;6.186;2022-08-02T02:03:04;13.70;99.90
52543;DHT22;38449;52.696;6.186;2022-08-02T02:05:34;13.70;99.90
52543;DHT22;38449;52.696;6.186;2022-08-02T02:08:03;13.70;99.90
52543;DHT22;38449;52.696;6.186;2022-08-02T02:10:32;13.60;99.90
52543;DHT22;38449;52.696;6.186;2022-08-02T02:13:02;13.70;99.90
52543;DHT22;38449;52.696;6.186;2022-08-02T02:15:30;13.70;99.90
52543;DHT22;38449;52.696;6.186;2022-08-02T02:17:57;13.60;99.90
52543;DHT22;38449;52.696;6.186;2022-08-02T02:20:24;13.70;99.90
52543;DHT22;38449;52.696;6.186;2022-08-02T02:22:51;13.60;99.90
52543;DHT22;38449;52.696;6.186;2022-08-02T02:25:19;13.60;99.90
52543;DHT22;38449;52.696;6.186;2022-08-02T02:27:52;13.60;99.90
52543;DHT22;38449;52.696;6.186;2022-08-02T02:30:19;13.60;99.90
52543;DHT22;38449;52.696;6.186;2022-08-02T02:32:46;13.60;99.90
52543;DHT22;38449;52.696;6.186;2022-08-02T02:35:15;13.50;99.90
52543;DHT22;38449;52.696;6.186;2022-08-02T02:37:42;13.50;99.90
52543;DHT22;38449;52.696;6.186;2022-08-02T02:40:11;13.50;99.90
52543;DHT22;38449;52.696;6.186;2022-08-02T02:42:38;13.50;99.90
52543;DHT22;38449;52.696;6.186;2022-08-02T02:45:05;13.50;99.90
52543;DHT22;38449;52.696;6.186;2022-08-02T02:47:31;13.50;99.90
52543;DHT22;38449;52.696;6.186;2022-08-02T02:49:59;13.50;99.90
52543;DHT22;38449;52.696;6.186;2022-08-02T02:52:25;13.50;99.90
52543;DHT22;38449;52.696;6.186;2022-08-02T02:54:52;13.40;99.90
52543;DHT22;38449;52.696;6.186;2022-08-02T02:57:18;13.40;99.90
52543;DHT22;38449;52.696;6.186;2022-08-02T02:59:46;13.40;99.90
52543;DHT22;38449;52.696;6.186;2022-08-02T03:02:12;13.40;99.90
52543;DHT22;38449;52.696;6.186;2022-08-02T03:04:40;13.40;99.90
52543;DHT22;38449;52.696;6.186;2022-08-02T03:07:06;13.50;99.90
52543;DHT22;38449;52.696;6.186;2022-08-02T03:09:33;13.50;99.90
52543;DHT22;38449;52.696;6.186;2022-08-02T03:11:58;13.50;99.90
52543;DHT22;38449;52.696;6.186;2022-08-02T03:14:24;13.50;99.90
52543;DHT22;38449;52.696;6.186;2022-08-02T03:16:51;13.40;99.90
52543;DHT22;38449;52.696;6.186;2022-08-02T03:19:19;13.50;99.90
52543;DHT22;38449;52.696;6.186;2022-08-02T03:21:47;13.30;99.90
52543;DHT22;38449;52.696;6.186;2022-08-02T03:24:13;13.50;99.90
52543;DHT22;38449;52.696;6.186;2022-08-02T03:26:40;13.40;99.90
52543;DHT22;38449;52.696;6.186;2022-08-02T03:29:06;13.40;99.90
52543;DHT22;38449;52.696;6.186;2022-08-02T03:31:32;13.30;99.90
52543;DHT22;38449;52.696;6.186;2022-08-02T03:34:00;13.40;99.90
52543;DHT22;38449;52.696;6.186;2022-08-02T03:36:29;13.30;99.90
52543;DHT22;38449;52.696;6.186;2022-08-02T03:38:57;13.30;99.90
52543;DHT22;38449;52.696;6.186;2022-08-02T03:41:24;13.30;99.90
52543;DHT22;38449;52.696;6.186;2022-08-02T03:43:50;13.30;99.90
52543;DHT22;38449;52.696;6.186;2022-08-02T03:46:20;13.20;99.90
52543;DHT22;38449;52.696;6.186;2022-08-02T03:48:47;13.20;99.90
52543;DHT22;38449;52.696;6.186;2022-08-02T03:51:14;13.30;99.90
52543;DHT22;38449;52.696;6.186;2022-08-02T03:53:40;13.40;99.90
52543;DHT22;38449;52.696;6.186;2022-08-02T03:56:06;13.40;99.90
52543;DHT22;38449;52.696;6.186;2022-08-02T03:58:33;13.30;99.90
52543;DHT22;38449;52.696;6.186;2022-08-02T04:00:59;13.40;99.90
52543;DHT22;38449;52.696;6.186;2022-08-02T04:03:25;13.40;99.90
52543;DHT22;38449;52.696;6.186;2022-08-02T04:05:51;13.40;99.90
52543;DHT22;38449;52.696;6.186;2022-08-02T04:08:17;13.30;99.90
52543;DHT22;38449;52.696;6.186;2022-08-02T04:10:43;13.40;99.90
52543;DHT22;38449;52.696;6.186;2022-08-02T04:13:29;13.40;99.90
52543;DHT22;38449;52.696;6.186;2022-08-02T04:16:03;13.50;99.90
52543;DHT22;38449;52.696;6.186;2022-08-02T04:18:33;13.40;99.90
52543;DHT22;38449;52.696;6.186;2022-08-02T04:21:03;13.50;99.90
52543;DHT22;38449;52.696;6.186;2022-08-02T04:23:32;13.50;99.90
52543;DHT22;38449;52.696;6.186;2022-08-02T04:25:59;13.50;99.90
52543;DHT22;38449;52.696;6.186;2022-08-02T04:28:26;13.50;99.90
52543;DHT22;38449;52.696;6.186;2022-08-02T04:30:53;13.60;99.90
52543;DHT22;38449;52.696;6.186;2022-08-02T04:33:19;13.60;99.90
52543;DHT22;38449;52.696;6.186;2022-08-02T04:35:45;13.60;99.90
52543;DHT22;38449;52.696;6.186;2022-08-02T04:38:12;13.70;99.90
52543;DHT22;38449;52.696;6.186;2022-08-02T04:40:39;13.70;99.90
52543;DHT22;38449;52.696;6.186;2022-08-02T04:43:04;13.70;99.90
52543;DHT22;38449;52.696;6.186;2022-08-02T04:45:30;13.80;99.90
52543;DHT22;38449;52.696;6.186;2022-08-02T04:47:56;13.90;99.90
52543;DHT22;38449;52.696;6.186;2022-08-02T04:50:22;14.20;99.90
52543;DHT22;38449;52.696;6.186;2022-08-02T04:52:48;14.20;99.90
52543;DHT22;38449;52.696;6.186;2022-08-02T04:55:13;14.40;99.90
52543;DHT22;38449;52.696;6.186;2022-08-02T04:57:39;14.30;99.90
52543;DHT22;38449;52.696;6.186;2022-08-02T05:00:26;14.20;99.90
52543;DHT22;38449;52.696;6.186;2022-08-02T05:02:54;14.30;99.90
52543;DHT22;38449;52.696;6.186;2022-08-02T05:05:20;14.40;99.90
52543;DHT22;38449;52.696;6.186;2022-08-02T05:07:46;14.70;99.90
52543;DHT22;38449;52.696;6.186;2022-08-02T05:10:11;15.10;99.90
52543;DHT22;38449;52.696;6.186;2022-08-02T05:12:38;15.60;99.90
52543;DHT22;38449;52.696;6.186;2022-08-02T05:15:04;16.20;99.90
52543;DHT22;38449;52.696;6.186;2022-08-02T05:17:30;16.80;99.90
52543;DHT22;38449;52.696;6.186;2022-08-02T05:19:56;17.40;99.90
52543;DHT22;38449;52.696;6.186;2022-08-02T05:22:22;17.90;99.90
52543;DHT22;38449;52.696;6.186;2022-08-02T05:24:47;18.40;99.90
52543;DHT22;38449;52.696;6.186;2022-08-02T05:27:13;18.70;99.90
52543;DHT22;38449;52.696;6.186;2022-08-02T05:29:40;19.10;99.90
52543;DHT22;38449;52.696;6.186;2022-08-02T05:32:06;19.40;99.90
52543;DHT22;38449;52.696;6.186;2022-08-02T05:34:31;19.70;99.90
52543;DHT22;38449;52.696;6.186;2022-08-02T05:36:57;20.10;99.90
52543;DHT22;38449;52.696;6.186;2022-08-02T05:39:22;20.20;99.90
52543;DHT22;38449;52.696;6.186;2022-08-02T05:41:48;20.50;99.90
52543;DHT22;38449;52.696;6.186;2022-08-02T05:44:14;20.80;99.90
52543;DHT22;38449;52.696;6.186;2022-08-02T05:46:39;20.90;99.90
52543;DHT22;38449;52.696;6.186;2022-08-02T05:49:05;20.90;99.90
52543;DHT22;38449;52.696;6.186;2022-08-02T05:51:39;21.00;99.90
52543;DHT22;38449;52.696;6.186;2022-08-02T05:56:55;21.60;99.90
52543;DHT22;38449;52.696;6.186;2022-08-02T06:01:55;22.00;99.90
52543;DHT22;38449;52.696;6.186;2022-08-02T06:04:40;22.10;99.90
52543;DHT22;38449;52.696;6.186;2022-08-02T06:07:11;22.30;99.90
52543;DHT22;38449;52.696;6.186;2022-08-02T06:09:38;22.50;99.90
52543;DHT22;38449;52.696;6.186;2022-08-02T06:12:06;22.70;99.90
52543;DHT22;38449;52.696;6.186;2022-08-02T06:14:33;22.80;99.90
52543;DHT22;38449;52.696;6.186;2022-08-02T06:17:03;22.70;99.90
52543;DHT22;38449;52.696;6.186;2022-08-02T06:19:29;22.60;99.90
52543;DHT22;38449;52.696;6.186;2022-08-02T06:21:55;22.40;99.90
52543;DHT22;38449;52.696;6.186;2022-08-02T06:24:43;22.30;99.90
52543;DHT22;38449;52.696;6.186;2022-08-02T06:27:13;22.40;99.90
52543;DHT22;38449;52.696;6.186;2022-08-02T06:29:42;22.20;99.90
52543;DHT22;38449;52.696;6.186;2022-08-02T06:32:09;22.30;99.90
52543;DHT22;38449;52.696;6.186;2022-08-02T06:34:40;22.40;99.90
52543;DHT22;38449;52.696;6.186;2022-08-02T06:39:51;22.70;99.90
52543;DHT22;38449;52.696;6.186;2022-08-02T06:42:27;23.00;99.90
52543;DHT22;38449;52.696;6.186;2022-08-02T06:44:56;23.00;99.90
52543;DHT22;38449;52.696;6.186;2022-08-02T06:47:21;22.80;99.90
52543;DHT22;38449;52.696;6.186;2022-08-02T06:49:47;22.60;99.90
52543;DHT22;38449;52.696;6.186;2022-08-02T06:52:13;22.30;99.90
52543;DHT22;38449;52.696;6.186;2022-08-02T06:54:38;22.30;99.90
52543;DHT22;38449;52.696;6.186;2022-08-02T06:57:07;22.60;99.90
52543;DHT22;38449;52.696;6.186;2022-08-02T06:59:33;23.10;99.90
52543;DHT22;38449;52.696;6.186;2022-08-02T07:01:59;23.50;99.80
52543;DHT22;38449;52.696;6.186;2022-08-02T07:04:27;23.70;99.40
52543;DHT22;38449;52.696;6.186;2022-08-02T07:06:53;24.00;99.20
52543;DHT22;38449;52.696;6.186;2022-08-02T07:09:21;23.90;99.30
52543;DHT22;38449;52.696;6.186;2022-08-02T07:11:49;23.80;99.20
52543;DHT22;38449;52.696;6.186;2022-08-02T07:14:15;23.80;99.60
52543;DHT22;38449;52.696;6.186;2022-08-02T07:16:41;23.60;99.60
52543;DHT22;38449;52.696;6.186;2022-08-02T07:19:06;23.40;99.80
52543;DHT22;38449;52.696;6.186;2022-08-02T07:21:32;23.40;99.70
52543;DHT22;38449;52.696;6.186;2022-08-02T07:23:58;23.20;99.60
52543;DHT22;38449;52.696;6.186;2022-08-02T07:26:23;22.90;99.90
52543;DHT22;38449;52.696;6.186;2022-08-02T07:28:49;22.70;99.90
52543;DHT22;38449;52.696;6.186;2022-08-02T07:31:15;22.70;99.90
52543;DHT22;38449;52.696;6.186;2022-08-02T07:33:40;22.70;99.90
52543;DHT22;38449;52.696;6.186;2022-08-02T07:36:07;22.70;99.90
52543;DHT22;38449;52.696;6.186;2022-08-02T07:38:33;22.70;99.90
52543;DHT22;38449;52.696;6.186;2022-08-02T07:40:59;22.80;99.90
52543;DHT22;38449;52.696;6.186;2022-08-02T07:43:24;22.90;99.90
52543;DHT22;38449;52.696;6.186;2022-08-02T07:45:50;23.20;99.90
52543;DHT22;38449;52.696;6.186;2022-08-02T07:48:15;23.30;99.90
52543;DHT22;38449;52.696;6.186;2022-08-02T07:50:41;23.40;99.90
52543;DHT22;38449;52.696;6.186;2022-08-02T07:53:07;23.50;99.90
52543;DHT22;38449;52.696;6.186;2022-08-02T07:55:32;23.40;99.90
52543;DHT22;38449;52.696;6.186;2022-08-02T07:57:58;23.50;99.90
52543;DHT22;38449;52.696;6.186;2022-08-02T08:00:24;23.60;99.90
52543;DHT22;38449;52.696;6.186;2022-08-02T08:02:49;23.60;99.90
52543;DHT22;38449;52.696;6.186;2022-08-02T08:05:15;23.70;99.90
52543;DHT22;38449;52.696;6.186;2022-08-02T08:07:40;23.80;99.90
52543;DHT22;38449;52.696;6.186;2022-08-02T08:10:07;24.00;99.70
52543;DHT22;38449;52.696;6.186;2022-08-02T08:12:33;24.10;99.70
52543;DHT22;38449;52.696;6.186;2022-08-02T08:14:59;24.10;99.70
52543;DHT22;38449;52.696;6.186;2022-08-02T08:17:27;24.30;99.90
52543;DHT22;38449;52.696;6.186;2022-08-02T08:19:53;24.30;99.80
52543;DHT22;38449;52.696;6.186;2022-08-02T08:22:20;24.30;99.90
52543;DHT22;38449;52.696;6.186;2022-08-02T08:24:46;24.40;99.90
52543;DHT22;38449;52.696;6.186;2022-08-02T08:27:12;24.40;99.90
52543;DHT22;38449;52.696;6.186;2022-08-02T08:29:41;24.50;99.90
52543;DHT22;38449;52.696;6.186;2022-08-02T08:32:07;24.40;99.90
52543;DHT22;38449;52.696;6.186;2022-08-02T08:34:33;24.50;99.90
52543;DHT22;38449;52.696;6.186;2022-08-02T08:37:00;24.50;99.90
52543;DHT22;38449;52.696;6.186;2022-08-02T08:39:28;24.70;99.90
52543;DHT22;38449;52.696;6.186;2022-08-02T08:41:54;24.80;99.90
52543;DHT22;38449;52.696;6.186;2022-08-02T08:44:20;24.70;99.90
52543;DHT22;38449;52.696;6.186;2022-08-02T08:46:48;24.80;99.90
52543;DHT22;38449;52.696;6.186;2022-08-02T08:51:55;24.80;99.70
52543;DHT22;38449;52.696;6.186;2022-08-02T08:54:27;25.00;99.70
52543;DHT22;38449;52.696;6.186;2022-08-02T08:56:54;25.10;99.70
52543;DHT22;38449;52.696;6.186;2022-08-02T08:59:21;25.10;99.40
52543;DHT22;38449;52.696;6.186;2022-08-02T09:01:48;25.20;99.20
52543;DHT22;38449;52.696;6.186;2022-08-02T09:04:14;25.20;99.30
52543;DHT22;38449;52.696;6.186;2022-08-02T09:06:40;25.30;99.30
52543;DHT22;38449;52.696;6.186;2022-08-02T09:09:06;25.40;99.20
52543;DHT22;38449;52.696;6.186;2022-08-02T09:11:34;25.50;99.10
52543;DHT22;38449;52.696;6.186;2022-08-02T09:14:02;25.50;99.30
52543;DHT22;38449;52.696;6.186;2022-08-02T09:16:41;25.50;99.30
52543;DHT22;38449;52.696;6.186;2022-08-02T09:19:25;25.70;99.60
52543;DHT22;38449;52.696;6.186;2022-08-02T09:22:01;25.70;99.20
52543;DHT22;38449;52.696;6.186;2022-08-02T09:24:26;25.60;99.20
52543;DHT22;38449;52.696;6.186;2022-08-02T09:26:52;25.50;99.80
52543;DHT22;38449;52.696;6.186;2022-08-02T09:29:22;25.60;99.60
52543;DHT22;38449;52.696;6.186;2022-08-02T09:31:48;25.60;99.60
52543;DHT22;38449;52.696;6.186;2022-08-02T09:34:17;25.80;99.80
52543;DHT22;38449;52.696;6.186;2022-08-02T09:36:45;25.90;99.50
52543;DHT22;38449;52.696;6.186;2022-08-02T09:39:14;25.90;99.50
52543;DHT22;38449;52.696;6.186;2022-08-02T09:41:41;26.00;99.40
52543;DHT22;38449;52.696;6.186;2022-08-02T09:44:13;26.10;99.40
52543;DHT22;38449;52.696;6.186;2022-08-02T09:46:43;26.10;99.50
52543;DHT22;38449;52.696;6.186;2022-08-02T09:49:11;26.20;99.50
52543;DHT22;38449;52.696;6.186;2022-08-02T09:51:48;26.30;99.40
52543;DHT22;38449;52.696;6.186;2022-08-02T09:54:18;26.30;99.50
52543;DHT22;38449;52.696;6.186;2022-08-02T09:56:46;26.30;99.40
52543;DHT22;38449;52.696;6.186;2022-08-02T09:59:14;26.20;99.50
52543;DHT22;38449;52.696;6.186;2022-08-02T10:01:41;26.10;99.60
52543;DHT22;38449;52.696;6.186;2022-08-02T10:04:09;26.10;99.60
52543;DHT22;38449;52.696;6.186;2022-08-02T10:06:37;26.10;99.70
52543;DHT22;38449;52.696;6.186;2022-08-02T10:09:04;26.10;99.70
52543;DHT22;38449;52.696;6.186;2022-08-02T10:11:30;26.20;99.70
52543;DHT22;38449;52.696;6.186;2022-08-02T10:13:57;26.30;99.90
52543;DHT22;38449;52.696;6.186;2022-08-02T10:16:24;26.50;99.70
52543;DHT22;38449;52.696;6.186;2022-08-02T10:18:51;26.60;99.70
52543;DHT22;38449;52.696;6.186;2022-08-02T10:21:25;26.50;99.70
52543;DHT22;38449;52.696;6.186;2022-08-02T10:24:16;26.60;99.90
52543;DHT22;38449;52.696;6.186;2022-08-02T10:26:44;26.80;99.70
52543;DHT22;38449;52.696;6.186;2022-08-02T10:29:17;26.90;98.40
52543;DHT22;38449;52.696;6.186;2022-08-02T10:31:50;26.90;98.40
52543;DHT22;38449;52.696;6.186;2022-08-02T10:34:23;26.90;97.50
52543;DHT22;38449;52.696;6.186;2022-08-02T10:36:51;26.80;97.40
52543;DHT22;38449;52.696;6.186;2022-08-02T10:39:17;26.60;97.70
52543;DHT22;38449;52.696;6.186;2022-08-02T10:41:50;26.50;97.80
52543;DHT22;38449;52.696;6.186;2022-08-02T10:44:30;26.40;98.00
52543;DHT22;38449;52.696;6.186;2022-08-02T10:47:26;26.40;98.90
52543;DHT22;38449;52.696;6.186;2022-08-02T10:49:56;26.30;99.30
52543;DHT22;38449;52.696;6.186;2022-08-02T10:52:25;26.30;99.90
52543;DHT22;38449;52.696;6.186;2022-08-02T10:54:59;26.50;99.90
52543;DHT22;38449;52.696;6.186;2022-08-02T10:57:30;26.50;99.90
52543;DHT22;38449;52.696;6.186;2022-08-02T11:00:10;26.50;99.90
52543;DHT22;38449;52.696;6.186;2022-08-02T11:02:45;26.50;99.50
52543;DHT22;38449;52.696;6.186;2022-08-02T11:07:52;26.80;99.90
52543;DHT22;38449;52.696;6.186;2022-08-02T11:10:38;26.80;99.90
52543;DHT22;38449;52.696;6.186;2022-08-02T11:13:05;26.80;99.60
52543;DHT22;38449;52.696;6.186;2022-08-02T11:18:15;26.60;99.90
52543;DHT22;38449;52.696;6.186;2022-08-02T11:20:41;26.50;99.90
52543;DHT22;38449;52.696;6.186;2022-08-02T11:23:35;26.60;99.90
52543;DHT22;38449;52.696;6.186;2022-08-02T11:26:40;26.50;99.90
52543;DHT22;38449;52.696;6.186;2022-08-02T11:28:55;26.60;99.90
52543;DHT22;38449;52.696;6.186;2022-08-02T11:31:21;26.70;99.90
52543;DHT22;38449;52.696;6.186;2022-08-02T11:33:48;26.80;99.80
52543;DHT22;38449;52.696;6.186;2022-08-02T11:36:15;26.80;99.80
52543;DHT22;38449;52.696;6.186;2022-08-02T11:38:41;26.60;99.70
52543;DHT22;38449;52.696;6.186;2022-08-02T11:41:07;26.50;99.70
52543;DHT22;38449;52.696;6.186;2022-08-02T11:43:34;26.60;99.90
52543;DHT22;38449;52.696;6.186;2022-08-02T11:46:04;26.70;99.50
52543;DHT22;38449;52.696;6.186;2022-08-02T11:48:38;26.80;99.50
52543;DHT22;38449;52.696;6.186;2022-08-02T11:51:13;26.80;99.40
52543;DHT22;38449;52.696;6.186;2022-08-02T11:53:50;26.90;99.70
52543;DHT22;38449;52.696;6.186;2022-08-02T11:56:28;26.90;99.30
52543;DHT22;38449;52.696;6.186;2022-08-02T11:59:08;26.80;99.40
52543;DHT22;38449;52.696;6.186;2022-08-02T12:01:36;26.70;99.60
52543;DHT22;38449;52.696;6.186;2022-08-02T12:04:03;26.60;99.50
52543;DHT22;38449;52.696;6.186;2022-08-02T12:06:30;26.60;99.80
52543;DHT22;38449;52.696;6.186;2022-08-02T12:09:10;26.70;99.90
52543;DHT22;38449;52.696;6.186;2022-08-02T12:11:37;26.80;99.90
52543;DHT22;38449;52.696;6.186;2022-08-02T12:14:04;26.90;99.90
52543;DHT22;38449;52.696;6.186;2022-08-02T12:16:36;27.00;99.80
52543;DHT22;38449;52.696;6.186;2022-08-02T12:19:22;27.10;99.90
52543;DHT22;38449;52.696;6.186;2022-08-02T12:24:31;27.20;99.90
52543;DHT22;38449;52.696;6.186;2022-08-02T12:26:56;27.20;99.90
52543;DHT22;38449;52.696;6.186;2022-08-02T12:29:30;27.20;99.90
52543;DHT22;38449;52.696;6.186;2022-08-02T12:31:55;27.20;99.90
52543;DHT22;38449;52.696;6.186;2022-08-02T12:34:21;27.20;99.90
52543;DHT22;38449;52.696;6.186;2022-08-02T12:37:09;27.10;99.90
52543;DHT22;38449;52.696;6.186;2022-08-02T12:39:42;27.10;99.90
52543;DHT22;38449;52.696;6.186;2022-08-02T12:42:10;27.00;99.90
52543;DHT22;38449;52.696;6.186;2022-08-02T12:44:50;27.00;99.90
52543;DHT22;38449;52.696;6.186;2022-08-02T12:47:16;26.90;99.90
52543;DHT22;38449;52.696;6.186;2022-08-02T12:49:42;26.70;99.90
52543;DHT22;38449;52.696;6.186;2022-08-02T12:52:19;26.70;99.90
52543;DHT22;38449;52.696;6.186;2022-08-02T12:54:45;26.70;99.90
52543;DHT22;38449;52.696;6.186;2022-08-02T12:57:14;26.80;99.90
52543;DHT22;38449;52.696;6.186;2022-08-02T12:59:42;26.90;99.90
52543;DHT22;38449;52.696;6.186;2022-08-02T13:02:11;26.80;99.90
52543;DHT22;38449;52.696;6.186;2022-08-02T13:04:39;26.90;99.90
52543;DHT22;38449;52.696;6.186;2022-08-02T13:07:05;27.00;99.90
52543;DHT22;38449;52.696;6.186;2022-08-02T13:09:38;27.00;99.90
52543;DHT22;38449;52.696;6.186;2022-08-02T13:12:05;27.10;99.90
52543;DHT22;38449;52.696;6.186;2022-08-02T13:14:32;27.30;99.90
52543;DHT22;38449;52.696;6.186;2022-08-02T13:16:58;27.40;99.90
52543;DHT22;38449;52.696;6.186;2022-08-02T13:19:24;27.60;99.90
52543;DHT22;38449;52.696;6.186;2022-08-02T13:21:51;27.70;99.90
52543;DHT22;38449;52.696;6.186;2022-08-02T13:24:17;27.70;99.90
52543;DHT22;38449;52.696;6.186;2022-08-02T13:26:43;27.70;99.90
52543;DHT22;38449;52.696;6.186;2022-08-02T13:29:10;27.60;99.90
52543;DHT22;38449;52.696;6.186;2022-08-02T13:31:36;27.60;99.90
52543;DHT22;38449;52.696;6.186;2022-08-02T13:34:07;27.60;99.90
52543;DHT22;38449;52.696;6.186;2022-08-02T13:36:34;27.60;99.90
52543;DHT22;38449;52.696;6.186;2022-08-02T13:39:04;27.50;99.90
52543;DHT22;38449;52.696;6.186;2022-08-02T13:41:31;27.40;99.90
52543;DHT22;38449;52.696;6.186;2022-08-02T13:43:56;27.40;99.90
52543;DHT22;38449;52.696;6.186;2022-08-02T13:46:22;27.40;99.90
52543;DHT22;38449;52.696;6.186;2022-08-02T13:48:47;27.40;99.70
52543;DHT22;38449;52.696;6.186;2022-08-02T13:51:13;27.40;99.80
52543;DHT22;38449;52.696;6.186;2022-08-02T13:53:39;27.40;99.90
52543;DHT22;38449;52.696;6.186;2022-08-02T13:56:06;27.40;99.90
52543;DHT22;38449;52.696;6.186;2022-08-02T13:58:32;27.40;99.90
52543;DHT22;38449;52.696;6.186;2022-08-02T14:00:58;27.40;99.60
52543;DHT22;38449;52.696;6.186;2022-08-02T14:03:24;27.40;99.40
52543;DHT22;38449;52.696;6.186;2022-08-02T14:05:52;27.40;99.60
52543;DHT22;38449;52.696;6.186;2022-08-02T14:08:19;27.40;99.50
52543;DHT22;38449;52.696;6.186;2022-08-02T14:10:48;27.50;99.30
52543;DHT22;38449;52.696;6.186;2022-08-02T14:13:14;27.40;99.60
52543;DHT22;38449;52.696;6.186;2022-08-02T14:15:40;27.50;99.60
52543;DHT22;38449;52.696;6.186;2022-08-02T14:18:07;27.50;99.80
52543;DHT22;38449;52.696;6.186;2022-08-02T14:20:33;27.60;99.90
52543;DHT22;38449;52.696;6.186;2022-08-02T14:22:59;27.70;99.90
52543;DHT22;38449;52.696;6.186;2022-08-02T14:25:24;27.80;99.30
52543;DHT22;38449;52.696;6.186;2022-08-02T14:27:50;27.80;99.20
52543;DHT22;38449;52.696;6.186;2022-08-02T14:30:16;28.00;99.00
52543;DHT22;38449;52.696;6.186;2022-08-02T14:32:42;28.20;98.50
52543;DHT22;38449;52.696;6.186;2022-08-02T14:35:08;28.40;98.40
52543;DHT22;38449;52.696;6.186;2022-08-02T14:37:34;28.50;98.20
52543;DHT22;38449;52.696;6.186;2022-08-02T14:40:00;28.60;97.70
52543;DHT22;38449;52.696;6.186;2022-08-02T14:42:26;28.70;97.70
52543;DHT22;38449;52.696;6.186;2022-08-02T14:44:52;28.80;97.60
52543;DHT22;38449;52.696;6.186;2022-08-02T14:47:17;28.90;97.40
52543;DHT22;38449;52.696;6.186;2022-08-02T14:49:43;29.00;97.00
52543;DHT22;38449;52.696;6.186;2022-08-02T14:52:09;29.10;96.80
52543;DHT22;38449;52.696;6.186;2022-08-02T14:54:34;29.00;96.10
52543;DHT22;38449;52.696;6.186;2022-08-02T14:57:02;28.90;96.50
52543;DHT22;38449;52.696;6.186;2022-08-02T14:59:28;28.90;96.50
52543;DHT22;38449;52.696;6.186;2022-08-02T15:01:54;28.90;96.10
52543;DHT22;38449;52.696;6.186;2022-08-02T15:04:20;28.80;96.10
52543;DHT22;38449;52.696;6.186;2022-08-02T15:06:46;28.80;96.00
52543;DHT22;38449;52.696;6.186;2022-08-02T15:09:11;28.70;96.00
52543;DHT22;38449;52.696;6.186;2022-08-02T15:11:38;28.80;96.20
52543;DHT22;38449;52.696;6.186;2022-08-02T15:14:04;28.70;96.10
52543;DHT22;38449;52.696;6.186;2022-08-02T15:16:29;28.70;95.90
52543;DHT22;38449;52.696;6.186;2022-08-02T15:19:01;28.80;96.10
52543;DHT22;38449;52.696;6.186;2022-08-02T15:21:27;28.80;96.00
52543;DHT22;38449;52.696;6.186;2022-08-02T15:23:52;28.70;96.20
52543;DHT22;38449;52.696;6.186;2022-08-02T15:26:18;28.70;96.40
52543;DHT22;38449;52.696;6.186;2022-08-02T15:28:46;28.60;96.40
52543;DHT22;38449;52.696;6.186;2022-08-02T15:31:12;28.60;96.20
52543;DHT22;38449;52.696;6.186;2022-08-02T15:33:39;28.60;96.20
52543;DHT22;38449;52.696;6.186;2022-08-02T15:36:06;28.60;96.10
52543;DHT22;38449;52.696;6.186;2022-08-02T15:38:32;28.60;96.00
52543;DHT22;38449;52.696;6.186;2022-08-02T15:40:58;28.60;96.20
52543;DHT22;38449;52.696;6.186;2022-08-02T15:43:24;28.60;96.40
52543;DHT22;38449;52.696;6.186;2022-08-02T15:45:50;28.60;96.40
52543;DHT22;38449;52.696;6.186;2022-08-02T15:48:16;28.60;96.20
52543;DHT22;38449;52.696;6.186;2022-08-02T15:50:42;28.60;95.60
52543;DHT22;38449;52.696;6.186;2022-08-02T15:53:08;28.50;95.80
52543;DHT22;38449;52.696;6.186;2022-08-02T15:55:33;28.50;95.80
52543;DHT22;38449;52.696;6.186;2022-08-02T15:57:59;28.50;96.20
52543;DHT22;38449;52.696;6.186;2022-08-02T16:00:25;28.40;96.20
52543;DHT22;38449;52.696;6.186;2022-08-02T16:02:51;28.40;96.50
52543;DHT22;38449;52.696;6.186;2022-08-02T16:05:17;28.40;96.70